createdAt,value
2018-12-18T00:00:20.898Z,29.30
2018-12-18T00:02:52.502Z,25.47
2018-12-18T00:05:29.432Z,26.20
2018-12-18T00:07:59.348Z,27.30
2018-12-18T00:10:32.767Z,26.77
2018-12-18T00:13:02.050Z,26.63
2018-12-18T00:15:31.218Z,27.37
2018-12-18T00:18:00.715Z,28.53
2018-12-18T00:20:30.369Z,25.47
2018-12-18T00:22:59.830Z,26.53
2018-12-18T00:25:29.976Z,24.87
2018-12-18T00:27:59.220Z,26.57
2018-12-18T00:30:29.296Z,26.37
2018-12-18T00:32:58.957Z,27.30
2018-12-18T00:35:28.897Z,25.60
2018-12-18T00:37:58.188Z,27.87
2018-12-18T00:40:27.891Z,25.10
2018-12-18T00:42:57.124Z,26.77
2018-12-18T00:45:26.371Z,26.87
2018-12-18T00:47:56.077Z,25.87
2018-12-18T00:50:25.265Z,27.03
2018-12-18T00:52:54.512Z,25.30
2018-12-18T00:55:25.337Z,26.93
2018-12-18T00:57:55.014Z,27.87
2018-12-18T01:00:25.545Z,24.77
2018-12-18T01:02:54.847Z,23.87
2018-12-18T01:05:24.164Z,24.30
2018-12-18T01:07:53.894Z,23.83
2018-12-18T01:10:25.070Z,22.83
2018-12-18T01:12:55.008Z,24.23
2018-12-18T01:15:24.275Z,26.07
2018-12-18T01:17:55.318Z,26.00
2018-12-18T01:20:25.745Z,24.73
2018-12-18T01:22:55.199Z,25.23
2018-12-18T01:25:24.807Z,24.30
2018-12-18T01:27:55.602Z,25.33
2018-12-18T01:30:26.140Z,25.37
2018-12-18T01:32:55.707Z,24.93
2018-12-18T01:35:24.899Z,23.13
2018-12-18T01:37:54.619Z,22.50
2018-12-18T01:40:24.946Z,23.50
2018-12-18T01:42:54.271Z,21.97
2018-12-18T01:45:23.512Z,22.30
2018-12-18T01:47:53.250Z,21.87
2018-12-18T01:50:23.088Z,21.10
2018-12-18T01:52:52.626Z,21.63
2018-12-18T01:55:22.930Z,20.33
2018-12-18T01:57:52.534Z,20.80
2018-12-18T02:00:21.844Z,18.90
2018-12-18T02:02:51.501Z,18.70
2018-12-18T02:05:20.819Z,19.47
2018-12-18T02:07:52.769Z,17.03
2018-12-18T02:10:22.537Z,17.77
2018-12-18T02:12:51.746Z,17.30
2018-12-18T02:15:21.828Z,18.13
2018-12-18T02:17:51.715Z,18.40
2018-12-18T02:20:21.231Z,17.60
2018-12-18T02:22:51.949Z,18.20
2018-12-18T02:25:22.745Z,17.97
2018-12-18T02:27:52.449Z,16.60
2018-12-18T02:30:22.431Z,17.00
2018-12-18T02:32:52.305Z,16.03
2018-12-18T02:35:22.666Z,17.47
2018-12-18T02:37:52.480Z,16.77
2018-12-18T02:40:23.567Z,16.37
2018-12-18T02:42:53.223Z,17.20
2018-12-18T02:45:22.442Z,17.90
2018-12-18T02:47:51.781Z,16.57
2018-12-18T02:50:21.312Z,17.53
2018-12-18T02:52:50.721Z,17.03
2018-12-18T02:55:20.577Z,16.90
2018-12-18T02:57:49.838Z,16.07
2018-12-18T03:00:20.480Z,16.73
2018-12-18T03:02:49.729Z,16.50
2018-12-18T03:05:19.364Z,16.60
2018-12-18T03:07:50.391Z,17.10
2018-12-18T03:10:24.923Z,16.10
2018-12-18T03:12:54.196Z,16.37
2018-12-18T03:15:24.185Z,16.20
2018-12-18T03:17:53.499Z,16.57
2018-12-18T03:20:23.256Z,17.47
2018-12-18T03:22:52.496Z,15.73
2018-12-18T03:25:21.753Z,17.33
2018-12-18T03:27:51.152Z,18.13
2018-12-18T03:30:20.445Z,18.50
2018-12-18T03:32:52.869Z,20.00
2018-12-18T03:35:22.333Z,19.57
2018-12-18T03:37:52.141Z,20.47
2018-12-18T03:40:21.431Z,20.07
2018-12-18T03:42:50.687Z,19.93
2018-12-18T03:45:21.996Z,19.23
2018-12-18T03:47:51.296Z,20.23
2018-12-18T03:50:21.033Z,19.20
2018-12-18T03:52:51.536Z,17.53
2018-12-18T03:55:21.249Z,19.33
2018-12-18T03:57:52.711Z,17.67
2018-12-18T04:00:23.746Z,17.83
2018-12-18T04:02:53.333Z,17.63
2018-12-18T04:05:23.616Z,17.00
2018-12-18T04:07:52.861Z,15.73
2018-12-18T04:10:22.205Z,16.50
2018-12-18T04:12:51.572Z,16.07
2018-12-18T04:15:20.847Z,15.13
2018-12-18T04:17:51.160Z,15.13
2018-12-18T04:20:20.405Z,16.07
2018-12-18T04:22:49.854Z,19.17
2018-12-18T04:25:19.105Z,19.43
2018-12-18T04:27:48.307Z,21.20
2018-12-18T04:30:17.965Z,22.93
2018-12-18T04:32:47.284Z,17.47
2018-12-18T04:35:18.538Z,16.80
2018-12-18T04:37:48.341Z,16.63
2018-12-18T04:40:19.629Z,18.37
2018-12-18T04:42:48.877Z,13.97
2018-12-18T04:45:18.105Z,17.07
2018-12-18T04:47:47.418Z,15.17
2018-12-18T04:50:18.582Z,14.93
2018-12-18T04:52:48.156Z,16.47
2018-12-18T04:55:18.332Z,21.40
2018-12-18T04:57:47.536Z,15.97
2018-12-18T05:00:16.790Z,16.07
2018-12-18T05:02:46.170Z,17.13
2018-12-18T05:05:16.450Z,21.50
2018-12-18T05:07:45.999Z,17.13
2018-12-18T05:10:16.814Z,16.33
2018-12-18T05:12:46.291Z,26.80
2018-12-18T05:15:15.599Z,20.97
2018-12-18T05:17:44.983Z,18.63
2018-12-18T05:20:14.290Z,16.17
2018-12-18T05:22:44.095Z,17.67
2018-12-18T05:25:14.054Z,21.83
2018-12-18T05:27:43.929Z,20.40
2018-12-18T05:30:13.186Z,15.80
2018-12-18T05:32:42.955Z,17.00
2018-12-18T05:35:13.127Z,17.23
2018-12-18T05:37:42.412Z,17.27
2018-12-18T05:40:12.402Z,17.07
2018-12-18T05:42:44.601Z,17.47
2018-12-18T05:45:13.801Z,17.03
2018-12-18T05:47:43.489Z,16.80
2018-12-18T05:50:13.324Z,17.60
2018-12-18T05:52:42.544Z,16.30
2018-12-18T05:55:11.780Z,15.53
2018-12-18T05:57:40.988Z,16.77
2018-12-18T06:00:10.808Z,17.80
2018-12-18T06:02:40.621Z,17.13
2018-12-18T06:05:10.848Z,16.67
2018-12-18T06:07:40.482Z,18.00
2018-12-18T06:10:11.948Z,19.40
2018-12-18T06:12:42.253Z,19.53
2018-12-18T06:15:12.703Z,23.60
2018-12-18T06:17:44.940Z,20.13
2018-12-18T06:20:14.794Z,23.97
2018-12-18T06:22:44.332Z,16.87
2018-12-18T06:25:14.007Z,19.80
2018-12-18T06:27:43.293Z,16.73
2018-12-18T06:30:13.007Z,19.27
2018-12-18T06:32:42.550Z,20.77
2018-12-18T06:35:11.946Z,21.20
2018-12-18T06:37:41.169Z,20.77
2018-12-18T06:40:10.733Z,20.93
2018-12-18T06:42:40.187Z,20.57
2018-12-18T06:45:09.950Z,17.70
2018-12-18T06:47:40.384Z,17.37
2018-12-18T06:50:10.333Z,14.40
2018-12-18T06:52:40.038Z,15.67
2018-12-18T06:55:13.066Z,14.40
2018-12-18T06:57:50.358Z,15.40
2018-12-18T07:00:27.969Z,14.80
2018-12-18T07:03:31.484Z,15.10
2018-12-18T07:06:17.915Z,15.20
2018-12-18T07:08:58.097Z,13.70
2018-12-18T07:11:36.627Z,15.70
2018-12-18T07:14:10.749Z,14.17
2018-12-18T07:16:43.926Z,15.30
2018-12-18T07:19:14.266Z,14.30
2018-12-18T07:21:44.157Z,15.53
2018-12-18T07:24:14.259Z,14.90
2018-12-18T07:26:44.278Z,14.17
2018-12-18T07:29:19.580Z,14.63
2018-12-18T07:31:54.543Z,15.33
2018-12-18T07:34:33.326Z,14.43
2018-12-18T07:37:04.411Z,14.73
2018-12-18T07:39:38.763Z,15.57
2018-12-18T07:42:12.362Z,15.00
2018-12-18T07:44:48.833Z,13.83
2018-12-18T07:47:23.640Z,14.43
2018-12-18T07:50:02.174Z,15.13
2018-12-18T07:52:36.238Z,15.23
2018-12-18T07:55:11.148Z,13.83
2018-12-18T07:57:46.307Z,15.33
2018-12-18T08:00:21.309Z,13.37
2018-12-18T08:03:06.707Z,14.87
2018-12-18T08:05:39.523Z,13.43
2018-12-18T08:08:20.493Z,14.40
2018-12-18T08:10:54.308Z,14.73
2018-12-18T08:13:27.980Z,16.50
2018-12-18T08:16:00.148Z,14.53
2018-12-18T08:21:30.487Z,14.60
2018-12-18T08:24:04.829Z,13.63
2018-12-18T08:26:37.255Z,14.83
2018-12-18T08:29:09.449Z,14.40
2018-12-18T08:31:48.238Z,14.47
2018-12-18T08:34:23.363Z,16.60
2018-12-18T08:36:53.181Z,15.40
2018-12-18T08:39:22.717Z,16.00
2018-12-18T08:41:53.468Z,15.00
2018-12-18T08:44:25.142Z,16.30
2018-12-18T08:46:56.709Z,14.80
2018-12-18T08:49:26.926Z,17.07
2018-12-18T08:51:56.190Z,15.70
2018-12-18T08:54:25.461Z,17.37
2018-12-18T08:56:55.159Z,16.47
2018-12-18T08:59:25.220Z,15.20
2018-12-18T09:01:54.932Z,15.80
2018-12-18T09:04:25.925Z,20.60
2018-12-18T09:06:56.474Z,15.70
2018-12-18T09:09:25.719Z,15.17
2018-12-18T09:11:56.921Z,17.60
2018-12-18T09:14:57.496Z,17.87
2018-12-18T09:17:32.800Z,17.63
2018-12-18T09:20:02.175Z,19.73
2018-12-18T09:22:32.461Z,18.30
2018-12-18T09:25:02.617Z,18.30
2018-12-18T09:27:36.569Z,18.13
2018-12-18T09:30:09.365Z,16.50
2018-12-18T09:32:38.642Z,20.13
2018-12-18T09:35:09.991Z,23.00
2018-12-18T09:37:39.659Z,22.37
2018-12-18T09:40:10.191Z,14.83
2018-12-18T09:42:45.129Z,16.60
2018-12-18T09:45:17.559Z,15.33
2018-12-18T09:47:47.579Z,13.47
2018-12-18T09:50:16.947Z,13.67
2018-12-18T09:52:46.244Z,14.10
2018-12-18T09:55:15.523Z,13.50
2018-12-18T09:58:03.244Z,13.17
2018-12-18T10:00:32.541Z,15.47
2018-12-18T10:03:01.694Z,15.10
2018-12-18T10:05:31.265Z,12.13
2018-12-18T10:08:00.897Z,12.43
2018-12-18T10:10:30.156Z,12.47
2018-12-18T10:12:59.350Z,13.80
2018-12-18T10:15:29.283Z,12.80
2018-12-18T10:17:58.572Z,12.70
2018-12-18T10:20:27.930Z,12.20
2018-12-18T10:22:57.140Z,12.17
2018-12-18T10:25:26.685Z,12.47
2018-12-18T10:27:56.349Z,12.13
2018-12-18T10:30:25.807Z,12.20
2018-12-18T10:32:55.120Z,11.83
2018-12-18T10:35:24.789Z,12.87
2018-12-18T10:37:54.038Z,15.97
2018-12-18T10:40:23.468Z,13.63
2018-12-18T10:42:52.642Z,12.27
2018-12-18T10:45:22.542Z,13.00
2018-12-18T10:47:51.760Z,14.03
2018-12-18T10:50:21.085Z,12.23
2018-12-18T10:53:02.841Z,13.90
2018-12-18T11:05:19.089Z,11.87
2018-12-18T11:08:01.280Z,11.87
2018-12-18T11:10:36.161Z,12.77
2018-12-18T11:13:17.555Z,12.37
2018-12-18T11:15:47.949Z,11.33
2018-12-18T11:18:17.280Z,11.90
2018-12-18T11:20:46.539Z,13.03
2018-12-18T11:23:15.845Z,12.97
2018-12-18T11:26:07.357Z,11.90
2018-12-18T11:29:00.303Z,12.17
2018-12-18T11:31:57.507Z,10.60
2018-12-18T11:34:41.094Z,11.30
2018-12-18T11:37:28.163Z,11.17
2018-12-18T11:40:15.025Z,10.83
2018-12-18T11:43:00.465Z,11.47
2018-12-18T11:45:30.885Z,10.33
2018-12-18T11:48:02.947Z,11.37
2018-12-18T11:50:32.346Z,11.97
2018-12-18T11:53:01.606Z,12.20
2018-12-18T11:55:31.046Z,11.50
2018-12-18T11:58:09.377Z,11.60
2018-12-18T12:00:42.655Z,11.00
2018-12-18T12:03:16.377Z,11.67
2018-12-18T12:05:47.602Z,11.57
2018-12-18T12:08:16.839Z,12.67
2018-12-18T12:10:46.067Z,11.97
2018-12-18T12:13:16.378Z,13.40
2018-12-18T12:15:45.595Z,16.60
2018-12-18T12:18:15.036Z,11.67
2018-12-18T12:20:44.258Z,15.47
2018-12-18T12:23:16.136Z,16.60
2018-12-18T12:25:46.489Z,11.50
2018-12-18T12:28:16.411Z,12.00
2018-12-18T12:30:45.645Z,12.40
2018-12-18T12:33:14.874Z,13.03
2018-12-18T12:35:44.262Z,13.23
2018-12-18T12:38:13.844Z,13.03
2018-12-18T12:40:43.095Z,13.37
2018-12-18T12:43:13.747Z,14.07
2018-12-18T12:45:43.402Z,13.53
2018-12-18T12:48:13.175Z,14.43
2018-12-18T12:50:42.710Z,13.77
2018-12-18T12:53:12.038Z,13.40
2018-12-18T12:55:41.755Z,13.10
2018-12-18T12:58:11.949Z,13.43
2018-12-18T13:00:41.210Z,14.50
2018-12-18T13:03:10.487Z,13.17
2018-12-18T13:05:39.703Z,13.53
2018-12-18T13:08:09.012Z,13.90
2018-12-18T13:10:38.346Z,13.43
2018-12-18T13:13:08.575Z,13.97
2018-12-18T13:15:39.126Z,14.43
2018-12-18T13:18:08.423Z,16.07
2018-12-18T13:20:38.577Z,15.90
2018-12-18T13:23:07.941Z,17.10
2018-12-18T13:25:38.764Z,17.27
2018-12-18T13:28:08.894Z,18.30
2018-12-18T13:30:38.793Z,16.87
2018-12-18T13:33:09.218Z,18.23
2018-12-18T13:35:39.004Z,17.03
2018-12-18T13:38:10.051Z,15.50
2018-12-18T13:40:41.356Z,18.50
2018-12-18T13:43:11.412Z,18.50
2018-12-18T13:45:41.781Z,18.60
2018-12-18T13:48:12.428Z,19.03
2018-12-18T13:50:42.435Z,16.97
2018-12-18T13:53:11.711Z,17.93
2018-12-18T13:55:42.672Z,18.60
2018-12-18T13:58:13.981Z,18.17
2018-12-18T14:00:43.599Z,17.00
2018-12-18T14:03:14.315Z,16.83
2018-12-18T14:05:43.776Z,18.80
2018-12-18T14:08:13.379Z,16.53
2018-12-18T14:10:43.105Z,17.93
2018-12-18T14:13:12.608Z,17.27
2018-12-18T14:15:41.913Z,17.90
2018-12-18T14:18:11.642Z,17.87
2018-12-18T14:20:41.490Z,18.80
2018-12-18T14:23:11.733Z,18.80
2018-12-18T14:25:41.375Z,17.40
2018-12-18T14:28:10.778Z,17.20
2018-12-18T14:30:41.109Z,18.77
2018-12-18T14:33:10.400Z,17.43
2018-12-18T14:35:39.598Z,18.17
2018-12-18T14:38:09.091Z,18.73
2018-12-18T14:40:39.229Z,19.13
2018-12-18T14:43:10.861Z,19.07
2018-12-18T14:45:41.294Z,20.23
2018-12-18T14:48:10.722Z,21.80
2018-12-18T14:50:40.589Z,21.10
2018-12-18T14:53:09.775Z,21.83
2018-12-18T14:55:39.057Z,21.10
2018-12-18T14:58:08.223Z,24.43
2018-12-18T15:00:38.652Z,25.73
2018-12-18T15:03:08.331Z,24.07
2018-12-18T15:05:37.555Z,25.93
2018-12-18T15:08:06.834Z,26.27
2018-12-18T15:10:36.039Z,25.87
2018-12-18T15:13:05.426Z,29.03
2018-12-18T15:15:35.534Z,28.30
2018-12-18T15:18:49.911Z,31.87
2018-12-18T15:21:21.550Z,31.80
2018-12-18T15:23:50.874Z,32.40
2018-12-18T15:26:20.299Z,36.17
2018-12-18T15:28:49.514Z,32.40
2018-12-18T15:31:19.649Z,32.63
2018-12-18T15:33:49.527Z,32.93
2018-12-18T15:36:18.823Z,31.30
2018-12-18T15:38:51.447Z,31.83
2018-12-18T15:41:29.298Z,33.27
2018-12-18T15:44:02.614Z,32.67
2018-12-18T15:46:41.589Z,30.50
2018-12-18T15:49:21.293Z,33.27
2018-12-18T15:51:54.917Z,31.47
2018-12-18T15:54:24.823Z,33.60
2018-12-18T15:56:54.441Z,33.33
2018-12-18T15:59:23.916Z,33.37
2018-12-18T16:01:53.229Z,33.93
2018-12-18T16:04:23.114Z,31.80
2018-12-18T16:06:53.515Z,30.07
2018-12-18T16:09:23.352Z,30.43
2018-12-18T16:11:52.872Z,30.33
2018-12-18T16:14:24.301Z,29.47
2018-12-18T16:16:54.043Z,28.00
2018-12-18T16:19:23.891Z,28.67
2018-12-18T16:21:54.238Z,29.63
2018-12-18T16:24:23.933Z,27.60
2018-12-18T16:26:53.289Z,31.57
2018-12-18T16:29:22.843Z,30.70
2018-12-18T16:31:52.055Z,29.77
2018-12-18T16:34:21.732Z,29.17
2018-12-18T16:36:51.660Z,26.90
2018-12-18T16:39:20.877Z,30.93
2018-12-18T16:41:50.910Z,28.07
2018-12-18T16:44:20.182Z,33.63
2018-12-18T16:46:50.730Z,29.70
2018-12-18T16:49:19.971Z,34.70
2018-12-18T16:51:49.669Z,33.07
2018-12-18T16:54:19.764Z,31.07
2018-12-18T16:56:50.971Z,36.70
2018-12-18T16:59:22.018Z,32.17
2018-12-18T17:01:51.781Z,30.43
2018-12-18T17:04:22.314Z,29.27
2018-12-18T17:06:52.682Z,27.47
2018-12-18T17:09:21.944Z,29.83
2018-12-18T17:11:51.408Z,27.23
2018-12-18T17:14:20.965Z,29.63
2018-12-18T17:16:50.241Z,28.83
2018-12-18T17:19:19.540Z,28.50
2018-12-18T17:21:49.058Z,25.37
2018-12-18T17:24:18.891Z,27.57
2018-12-18T17:26:48.299Z,27.93
2018-12-18T17:29:18.086Z,26.10
2018-12-18T17:31:47.385Z,26.77
2018-12-18T17:34:17.127Z,24.60
2018-12-18T17:36:46.290Z,27.33
2018-12-18T17:39:15.750Z,28.30
2018-12-18T17:41:45.635Z,26.10
2018-12-18T17:44:16.541Z,28.40
2018-12-18T17:46:46.538Z,29.40
2018-12-18T17:49:16.334Z,29.87
2018-12-18T17:51:46.156Z,28.73
2018-12-18T17:54:16.157Z,26.87
2018-12-18T17:56:45.614Z,26.53
2018-12-18T17:59:24.105Z,28.00
2018-12-18T18:01:54.430Z,26.60
2018-12-18T18:04:23.772Z,27.13
2018-12-18T18:06:57.978Z,26.93
2018-12-18T18:09:27.393Z,28.10
2018-12-18T18:11:57.278Z,27.30
2018-12-18T18:14:26.657Z,27.50
2018-12-18T18:16:56.035Z,24.93
2018-12-18T18:19:26.475Z,26.17
2018-12-18T18:21:56.634Z,27.77
2018-12-18T18:31:23.343Z,27.80
2018-12-18T18:33:53.067Z,25.63
2018-12-18T18:36:23.667Z,27.10
2018-12-18T18:38:53.235Z,26.30
2018-12-18T18:41:22.512Z,27.40
2018-12-18T18:43:54.360Z,25.83
2018-12-18T18:46:23.589Z,28.10
2018-12-18T18:48:54.843Z,26.47
2018-12-18T18:51:24.939Z,24.87
2018-12-18T18:53:54.925Z,28.27
2018-12-18T18:56:27.021Z,25.23
2018-12-18T18:58:58.278Z,25.83
2018-12-18T19:01:29.193Z,25.63
2018-12-18T19:03:59.357Z,24.17
2018-12-18T19:06:29.474Z,28.50
2018-12-18T19:08:58.811Z,24.40
2018-12-18T19:11:28.046Z,26.03
2018-12-18T19:13:58.475Z,23.00
2018-12-18T19:16:29.000Z,23.10
2018-12-18T19:18:58.670Z,24.60
2018-12-18T19:21:32.499Z,25.77
2018-12-18T19:24:01.919Z,25.17
2018-12-18T19:26:31.410Z,19.73
2018-12-18T19:29:00.884Z,26.03
2018-12-18T19:31:30.302Z,25.53
2018-12-18T19:33:59.927Z,25.47
2018-12-18T19:36:29.283Z,26.17
2018-12-18T19:38:58.471Z,24.50
2018-12-18T19:41:27.729Z,23.23
2018-12-18T19:43:57.274Z,21.60
2018-12-18T19:46:27.127Z,23.30
2018-12-18T19:48:57.274Z,25.30
2018-12-18T19:51:26.840Z,23.20
2018-12-18T19:53:56.386Z,22.93
2018-12-18T19:56:26.629Z,21.47
2018-12-18T19:58:56.236Z,21.50
2018-12-18T20:01:27.600Z,24.73
2018-12-18T20:03:58.850Z,23.43
2018-12-18T20:06:28.671Z,22.10
2018-12-18T20:08:59.800Z,22.97
2018-12-18T20:11:30.477Z,22.00
2018-12-18T20:14:00.176Z,22.23
2018-12-18T20:16:29.921Z,22.33
2018-12-18T20:19:00.096Z,22.83
2018-12-18T20:21:31.929Z,24.03
2018-12-18T20:24:01.402Z,22.70
2018-12-18T20:26:31.633Z,22.00
2018-12-18T20:29:16.155Z,24.37
2018-12-18T20:31:45.523Z,21.10
2018-12-18T20:34:15.324Z,22.63
2018-12-18T20:36:45.360Z,22.90
2018-12-18T20:39:14.768Z,20.67
2018-12-18T20:41:44.239Z,22.63
2018-12-18T20:44:13.674Z,21.50
2018-12-18T20:46:43.828Z,22.30
2018-12-18T20:49:14.925Z,23.67
2018-12-18T20:51:44.190Z,23.23
2018-12-18T20:54:13.737Z,23.80
2018-12-18T20:56:44.782Z,21.50
2018-12-18T20:59:15.525Z,23.00
2018-12-18T21:01:44.891Z,22.93
2018-12-18T21:04:14.600Z,24.20
2018-12-18T21:06:45.143Z,23.13
2018-12-18T21:09:17.841Z,21.00
2018-12-18T21:11:48.276Z,25.80
2018-12-18T21:14:22.036Z,21.70
2018-12-18T21:16:51.695Z,22.57
2018-12-18T21:19:21.409Z,23.40
2018-12-18T21:21:51.121Z,21.80
2018-12-18T21:24:22.138Z,20.77
2018-12-18T21:26:51.627Z,20.27
2018-12-18T21:29:39.210Z,20.80
2018-12-18T21:32:10.817Z,20.77
2018-12-18T21:34:40.421Z,20.70
2018-12-18T21:37:11.682Z,23.33
2018-12-18T21:39:42.792Z,21.43
2018-12-18T21:42:12.156Z,20.93
2018-12-18T21:44:44.647Z,21.57
2018-12-18T21:47:13.915Z,18.43
2018-12-18T21:49:45.098Z,23.07
2018-12-18T21:52:14.401Z,21.13
2018-12-18T21:54:43.647Z,21.00
2018-12-18T21:57:12.917Z,23.63
2018-12-18T21:59:42.210Z,18.47
2018-12-18T22:02:11.543Z,20.83
2018-12-18T22:04:40.852Z,20.27
2018-12-18T22:07:10.125Z,20.80
2018-12-18T22:09:39.440Z,20.17
2018-12-18T22:12:08.706Z,21.77
2018-12-18T22:14:38.089Z,18.43
2018-12-18T22:17:09.231Z,20.53
2018-12-18T22:19:38.737Z,21.60
2018-12-18T22:22:09.114Z,20.93
2018-12-18T22:24:38.415Z,20.47
2018-12-18T22:27:07.782Z,17.20
2018-12-18T22:29:38.807Z,18.43
2018-12-18T22:32:10.691Z,17.67
2018-12-18T22:34:41.034Z,17.97
2018-12-18T22:37:11.570Z,18.47
2018-12-18T22:39:40.946Z,17.83
2018-12-18T22:42:10.222Z,19.70
2018-12-18T22:44:39.442Z,21.00
2018-12-18T22:47:09.936Z,19.07
2018-12-18T22:49:40.030Z,20.27
2018-12-18T22:52:09.343Z,21.03
2018-12-18T22:54:38.629Z,21.73
2018-12-18T22:57:07.944Z,21.00
2018-12-18T22:59:37.444Z,21.80
2018-12-18T23:02:13.089Z,22.37
2018-12-18T23:04:42.651Z,19.97
2018-12-18T23:07:13.967Z,19.17
2018-12-18T23:09:43.189Z,21.23
2018-12-18T23:12:12.617Z,18.80
2018-12-18T23:14:41.867Z,19.17
2018-12-18T23:17:11.378Z,19.37
2018-12-18T23:19:41.097Z,21.00
2018-12-18T23:22:11.593Z,20.83
2018-12-18T23:24:41.415Z,20.83
2018-12-18T23:27:12.858Z,20.20
2018-12-18T23:29:42.407Z,20.47
2018-12-18T23:32:12.164Z,19.07
2018-12-18T23:34:42.476Z,18.47
2018-12-18T23:37:15.499Z,18.90
2018-12-18T23:39:45.551Z,17.60
2018-12-18T23:42:15.346Z,19.10
2018-12-18T23:44:45.546Z,18.03
2018-12-18T23:47:15.442Z,19.47
2018-12-18T23:49:44.838Z,17.50
2018-12-18T23:52:14.962Z,19.50
2018-12-18T23:54:45.147Z,18.67
2018-12-18T23:57:14.811Z,18.27
2018-12-18T23:59:44.197Z,18.37
